createdAt,value
2022-12-17T00:02:27.025Z,99959.66
2022-12-17T00:05:24.074Z,99945.31
2022-12-17T00:08:16.435Z,99948.50
2022-12-17T00:11:01.999Z,99955.72
2022-12-17T00:13:48.978Z,99955.91
2022-12-17T00:16:34.795Z,99950.34
2022-12-17T00:19:20.146Z,99951.38
2022-12-17T00:22:05.509Z,99962.47
2022-12-17T00:24:52.149Z,99960.16
2022-12-17T00:27:37.674Z,99964.38
2022-12-17T00:30:24.633Z,99964.19
2022-12-17T00:33:10.842Z,99971.34
2022-12-17T00:35:56.213Z,99970.53
2022-12-17T00:38:42.161Z,99982.78
2022-12-17T00:41:29.186Z,99982.69
2022-12-17T00:44:14.596Z,99984.50
2022-12-17T00:47:00.295Z,100004.69
2022-12-17T00:49:45.505Z,99996.31
2022-12-17T00:52:31.253Z,99990.31
2022-12-17T00:55:16.586Z,99989.97
2022-12-17T00:58:02.647Z,99986.31
2022-12-17T01:00:47.899Z,100002.84
2022-12-17T01:03:33.716Z,99989.13
2022-12-17T01:06:23.562Z,99994.16
2022-12-17T01:09:09.116Z,100018.81
2022-12-17T01:11:56.640Z,100004.03
2022-12-17T01:14:44.430Z,100008.66
2022-12-17T01:17:30.271Z,100014.19
2022-12-17T01:20:16.506Z,100018.97
2022-12-17T01:23:03.745Z,100014.25
2022-12-17T01:25:48.935Z,100023.22
2022-12-17T01:28:40.655Z,100020.63
2022-12-17T01:31:32.957Z,100026.81
2022-12-17T01:34:19.680Z,100028.63
2022-12-17T01:37:05.723Z,100036.66
2022-12-17T01:39:51.227Z,100044.13
2022-12-17T01:42:37.138Z,100036.81
2022-12-17T01:45:25.173Z,100039.41
2022-12-17T01:48:17.274Z,100035.94
2022-12-17T01:51:04.951Z,100051.16
2022-12-17T01:54:02.048Z,100057.50
2022-12-17T01:56:47.779Z,100056.59
2022-12-17T01:59:33.564Z,100053.50
2022-12-17T02:02:19.002Z,100057.03
2022-12-17T02:05:06.240Z,100049.97
2022-12-17T02:08:04.015Z,100049.66
2022-12-17T02:10:57.758Z,100058.69
2022-12-17T02:13:51.067Z,100047.94
2022-12-17T02:16:40.462Z,100040.00
2022-12-17T02:19:51.311Z,100054.06
2022-12-17T02:22:45.734Z,100058.50
2022-12-17T02:25:35.785Z,100064.81
2022-12-17T02:28:22.726Z,100069.56
2022-12-17T02:31:09.770Z,100066.84
2022-12-17T02:33:55.570Z,100074.69
2022-12-17T02:36:41.183Z,100060.88
2022-12-17T02:39:26.490Z,100076.59
2022-12-17T02:42:15.350Z,100064.66
2022-12-17T02:45:02.355Z,100083.56
2022-12-17T02:47:48.326Z,100087.81
2022-12-17T02:50:34.234Z,100099.41
2022-12-17T02:53:21.464Z,100107.47
2022-12-17T02:56:06.558Z,100111.47
2022-12-17T02:58:54.826Z,100108.75
2022-12-17T03:01:41.372Z,100113.19
2022-12-17T03:04:38.077Z,100120.34
2022-12-17T03:07:24.711Z,100123.03
2022-12-17T03:10:09.976Z,100127.31
2022-12-17T03:13:00.123Z,100140.97
2022-12-17T03:15:45.242Z,100133.13
2022-12-17T03:18:32.228Z,100129.38
2022-12-17T03:21:16.625Z,100135.69
2022-12-17T03:24:01.832Z,100148.91
2022-12-17T03:26:47.193Z,100139.31
2022-12-17T03:29:32.526Z,100140.09
2022-12-17T03:32:17.810Z,100148.41
2022-12-17T03:35:04.189Z,100143.94
2022-12-17T03:37:49.556Z,100151.97
2022-12-17T03:40:35.302Z,100161.81
2022-12-17T03:43:24.767Z,100152.59
2022-12-17T03:46:11.796Z,100149.81
2022-12-17T03:48:57.577Z,100162.47
2022-12-17T03:51:43.974Z,100162.44
2022-12-17T03:54:29.195Z,100161.09
2022-12-17T03:57:16.239Z,100151.72
2022-12-17T04:00:01.819Z,100155.16
2022-12-17T04:02:57.426Z,100158.06
2022-12-17T04:05:46.935Z,100149.94
2022-12-17T04:08:33.498Z,100157.31
2022-12-17T04:11:19.766Z,100155.16
2022-12-17T04:14:05.030Z,100154.91
2022-12-17T04:16:50.118Z,100156.94
2022-12-17T04:19:35.179Z,100168.38
2022-12-17T04:22:20.678Z,100167.19
2022-12-17T04:25:07.227Z,100181.47
2022-12-17T04:27:52.356Z,100172.63
2022-12-17T04:30:37.541Z,100188.59
2022-12-17T04:33:22.714Z,100185.88
2022-12-17T04:36:08.182Z,100181.31
2022-12-17T04:38:53.375Z,100186.56
2022-12-17T04:41:40.724Z,100194.91
2022-12-17T04:44:26.004Z,100201.00
2022-12-17T04:47:11.450Z,100206.53
2022-12-17T04:49:56.643Z,100204.72
2022-12-17T04:52:42.217Z,100221.84
2022-12-17T04:55:27.947Z,100209.13
2022-12-17T04:58:20.597Z,100212.59
2022-12-17T05:01:05.886Z,100216.66
2022-12-17T05:03:51.225Z,100218.44
2022-12-17T05:06:36.550Z,100222.69
2022-12-17T05:09:22.202Z,100227.13
2022-12-17T05:12:21.936Z,100244.97
2022-12-17T05:15:08.817Z,100240.38
2022-12-17T05:17:54.255Z,100241.56
2022-12-17T05:20:39.477Z,100232.09
2022-12-17T05:23:25.181Z,100241.47
2022-12-17T05:26:36.020Z,100242.13
2022-12-17T05:29:21.552Z,100254.44
2022-12-17T05:32:09.590Z,100277.00
2022-12-17T05:34:55.115Z,100275.69
2022-12-17T05:37:42.859Z,100296.41
2022-12-17T05:40:29.433Z,100291.59
2022-12-17T05:43:16.285Z,100299.03
2022-12-17T05:46:04.631Z,100304.94
2022-12-17T05:48:52.650Z,100309.38
2022-12-17T05:51:39.146Z,100317.41
2022-12-17T05:54:25.163Z,100329.63
2022-12-17T05:57:10.804Z,100321.84
2022-12-17T05:59:55.998Z,100334.03
2022-12-17T06:02:41.685Z,100335.94
2022-12-17T06:05:29.135Z,100350.91
2022-12-17T06:08:21.502Z,100354.41
2022-12-17T06:11:06.826Z,100357.03
2022-12-17T06:13:52.181Z,100358.06
2022-12-17T06:16:35.322Z,100364.94
2022-12-17T06:19:22.366Z,100364.16
2022-12-17T06:22:05.795Z,100385.75
2022-12-17T06:24:51.323Z,100371.41
2022-12-17T06:27:36.656Z,100385.53
2022-12-17T06:30:23.010Z,100379.03
2022-12-17T06:33:08.261Z,100393.50
2022-12-17T06:35:53.604Z,100396.19
2022-12-17T06:38:40.069Z,100393.25
2022-12-17T06:41:25.205Z,100409.44
2022-12-17T06:44:10.471Z,100399.41
2022-12-17T06:46:55.660Z,100419.25
2022-12-17T06:49:41.637Z,100407.44
2022-12-17T06:52:31.120Z,100424.66
2022-12-17T06:55:17.965Z,100412.00
2022-12-17T06:58:03.598Z,100416.22
2022-12-17T07:00:48.902Z,100422.03
2022-12-17T07:03:44.854Z,100427.44
2022-12-17T07:06:30.664Z,100432.63
2022-12-17T07:09:16.039Z,100439.78
2022-12-17T07:12:03.268Z,100427.88
2022-12-17T07:14:50.360Z,100443.22
2022-12-17T07:17:38.496Z,100434.19
2022-12-17T07:20:24.888Z,100441.22
2022-12-17T07:23:14.982Z,100436.53
2022-12-17T07:26:01.130Z,100454.63
2022-12-17T07:28:49.328Z,100458.13
2022-12-17T07:31:36.866Z,100459.66
2022-12-17T07:34:21.293Z,100470.16
2022-12-17T07:37:10.098Z,100490.13
2022-12-17T07:39:55.385Z,100484.59
2022-12-17T07:42:40.706Z,100511.25
2022-12-17T07:45:28.889Z,100509.47
2022-12-17T07:48:14.135Z,100487.63
2022-12-17T07:50:59.658Z,100500.03
2022-12-17T07:53:45.069Z,100531.56
2022-12-17T07:56:30.315Z,100525.13
2022-12-17T07:59:16.017Z,100532.31
2022-12-17T08:02:03.248Z,100527.59
2022-12-17T08:04:48.506Z,100556.38
2022-12-17T08:07:31.029Z,100542.09
2022-12-17T08:10:16.372Z,100563.81
2022-12-17T08:13:14.428Z,100564.66
2022-12-17T08:16:00.521Z,100558.16
2022-12-17T08:18:55.788Z,100560.91
2022-12-17T08:21:40.856Z,100573.56
2022-12-17T08:24:26.373Z,100580.84
2022-12-17T08:27:11.423Z,100575.25
2022-12-17T08:29:56.975Z,100571.69
2022-12-17T08:32:42.533Z,100569.72
2022-12-17T08:35:29.438Z,100589.22
2022-12-17T08:38:20.203Z,100598.44
2022-12-17T08:41:05.736Z,100588.47
2022-12-17T08:43:50.952Z,100596.53
2022-12-17T08:46:36.507Z,100624.25
2022-12-17T08:49:21.738Z,100626.16
2022-12-17T08:52:08.232Z,100617.19
2022-12-17T08:54:53.590Z,100622.50
2022-12-17T08:57:40.675Z,100623.41
2022-12-17T09:00:28.118Z,100613.44
2022-12-17T09:03:16.016Z,100612.59
2022-12-17T09:06:02.713Z,100625.19
2022-12-17T09:09:02.067Z,100615.19
2022-12-17T09:11:47.330Z,100629.50
2022-12-17T09:14:32.726Z,100626.97
2022-12-17T09:17:18.149Z,100652.69
2022-12-17T09:20:03.363Z,100654.38
2022-12-17T09:22:48.652Z,100643.53
2022-12-17T09:25:35.742Z,100635.59
2022-12-17T09:28:21.932Z,100651.72
2022-12-17T09:31:07.880Z,100633.94
2022-12-17T09:33:53.564Z,100639.19
2022-12-17T09:36:38.789Z,100651.56
2022-12-17T09:39:24.542Z,100658.81
2022-12-17T09:42:18.585Z,100657.00
2022-12-17T09:45:10.046Z,100657.00
2022-12-17T09:48:05.519Z,100649.81
2022-12-17T09:50:51.296Z,100657.75
2022-12-17T09:53:40.864Z,100664.06
2022-12-17T09:56:30.681Z,100663.03
2022-12-17T09:59:17.796Z,100674.56
2022-12-17T10:02:03.016Z,100677.22
2022-12-17T10:04:53.675Z,100681.63
2022-12-17T10:07:42.401Z,100680.72
2022-12-17T10:10:37.714Z,100689.56
2022-12-17T10:13:29.470Z,100714.38
2022-12-17T10:16:16.585Z,100705.44
2022-12-17T10:19:02.572Z,100700.84
2022-12-17T10:21:48.766Z,100713.50
2022-12-17T10:24:34.618Z,100705.41
2022-12-17T10:27:28.020Z,100704.47
2022-12-17T10:30:13.400Z,100745.31
2022-12-17T10:33:00.693Z,100723.09
2022-12-17T10:35:54.410Z,100726.72
2022-12-17T10:38:38.656Z,100739.06
2022-12-17T10:41:36.453Z,100738.16
2022-12-17T10:44:42.175Z,100747.06
2022-12-17T10:47:33.494Z,100758.50
2022-12-17T10:50:22.819Z,100755.88
2022-12-17T10:53:08.085Z,100773.56
2022-12-17T10:55:54.645Z,100792.13
2022-12-17T10:58:43.753Z,100781.44
2022-12-17T11:01:36.594Z,100783.22
2022-12-17T11:04:22.112Z,100776.13
2022-12-17T11:07:12.578Z,100791.22
2022-12-17T11:10:08.579Z,100786.81
2022-12-17T11:12:55.442Z,100793.81
2022-12-17T11:15:44.596Z,100801.78
2022-12-17T11:18:35.441Z,100798.22
2022-12-17T11:21:27.003Z,100795.63
2022-12-17T11:24:22.037Z,100800.84
2022-12-17T11:27:12.361Z,100786.81
2022-12-17T11:29:57.500Z,100792.03
2022-12-17T11:33:00.085Z,100793.81
2022-12-17T11:35:50.997Z,100797.41
2022-12-17T11:38:44.911Z,100816.78
2022-12-17T11:41:37.084Z,100801.78
2022-12-17T11:44:35.028Z,100791.22
2022-12-17T11:47:33.795Z,100792.94
2022-12-17T11:50:31.786Z,100804.41
2022-12-17T11:53:27.946Z,100792.88
2022-12-17T11:56:21.730Z,100809.72
2022-12-17T11:59:12.012Z,100802.63
2022-12-17T12:02:07.128Z,100794.63
2022-12-17T12:05:12.037Z,100802.66
2022-12-17T12:08:12.766Z,100802.69
2022-12-17T12:11:04.878Z,100790.31
2022-12-17T12:13:58.809Z,100787.66
2022-12-17T12:16:50.348Z,100783.22
2022-12-17T12:19:45.400Z,100818.53
2022-12-17T12:22:33.563Z,100804.44
2022-12-17T12:25:38.741Z,100818.53
2022-12-17T12:28:32.186Z,100804.44
2022-12-17T12:31:28.333Z,100811.50
2022-12-17T12:34:20.320Z,100797.38
2022-12-17T12:37:07.590Z,100809.75
2022-12-17T12:39:59.021Z,100806.19
2022-12-17T12:42:49.580Z,100801.75
2022-12-17T12:45:49.926Z,100840.53
2022-12-17T12:48:46.734Z,100823.81
2022-12-17T12:51:50.198Z,100837.91
2022-12-17T12:54:47.600Z,100829.09
2022-12-17T12:57:51.707Z,100828.19
2022-12-17T13:00:55.663Z,100842.28
2022-12-17T13:03:48.339Z,100842.31
2022-12-17T13:06:45.612Z,100826.44
2022-12-17T13:09:34.824Z,100832.59
2022-12-17T13:12:25.062Z,100829.06
2022-12-17T13:15:00.147Z,100817.63
2022-12-17T13:17:35.634Z,100815.84
2022-12-17T13:20:23.334Z,100817.63
2022-12-17T13:22:54.850Z,100829.94
2022-12-17T13:25:24.402Z,100842.28
2022-12-17T13:27:52.631Z,100837.00
2022-12-17T13:30:24.540Z,100858.13
2022-12-17T13:33:01.968Z,100851.06
2022-12-17T13:35:39.832Z,100837.00
2022-12-17T13:38:23.399Z,100834.34
2022-12-17T13:41:09.787Z,100814.94
2022-12-17T13:43:44.745Z,100850.19
2022-12-17T13:46:20.979Z,100837.84
2022-12-17T13:49:02.788Z,100843.16
2022-12-17T13:51:38.363Z,100841.38
2022-12-17T13:54:19.913Z,100856.38
2022-12-17T13:57:02.023Z,100851.97
2022-12-17T13:59:42.822Z,100840.53
2022-12-17T14:02:26.694Z,100853.72
2022-12-17T14:05:07.940Z,100850.19
2022-12-17T14:07:44.521Z,100840.53
2022-12-17T14:10:29.486Z,100838.75
2022-12-17T14:13:10.159Z,100830.81
2022-12-17T14:15:46.259Z,100838.72
2022-12-17T14:18:24.507Z,100850.22
2022-12-17T14:21:06.914Z,100841.38
2022-12-17T14:23:52.403Z,100846.66
2022-12-17T14:26:22.980Z,100848.44
2022-12-17T14:28:58.028Z,100853.72
2022-12-17T14:31:31.364Z,100851.97
2022-12-17T14:34:09.827Z,100847.53
2022-12-17T14:36:43.490Z,100843.13
2022-12-17T14:39:19.564Z,100844.88
2022-12-17T14:42:06.692Z,100845.78
2022-12-17T14:44:44.411Z,100839.59
2022-12-17T14:47:19.100Z,100846.66
2022-12-17T14:49:59.145Z,100866.03
2022-12-17T14:52:42.145Z,100851.06
2022-12-17T14:55:31.783Z,100864.28
2022-12-17T14:58:17.692Z,100852.81
2022-12-17T15:00:49.401Z,100855.47
2022-12-17T15:03:24.066Z,100851.94
2022-12-17T15:05:59.410Z,100856.34
2022-12-17T15:08:33.160Z,100854.56
2022-12-17T15:11:01.492Z,100855.47
2022-12-17T15:13:32.261Z,100851.94
2022-12-17T15:16:03.107Z,100853.69
2022-12-17T15:18:31.392Z,100849.31
2022-12-17T15:20:59.566Z,100862.50
2022-12-17T15:23:27.669Z,100872.19
2022-12-17T15:25:56.179Z,100875.72
2022-12-17T15:28:27.935Z,100867.78
2022-12-17T15:30:57.328Z,100895.94
2022-12-17T15:33:25.156Z,100898.56
2022-12-17T15:35:53.016Z,100898.56
2022-12-17T15:38:20.851Z,100904.69
2022-12-17T15:40:55.962Z,100902.97
2022-12-17T15:43:24.708Z,100910.03
2022-12-17T15:45:55.021Z,100910.00
2022-12-17T15:48:24.854Z,100917.91
2022-12-17T15:50:55.254Z,100913.50
2022-12-17T15:53:23.432Z,100918.78
2022-12-17T15:55:51.375Z,100910.88
2022-12-17T15:58:19.248Z,100925.81
2022-12-17T16:00:47.227Z,100918.75
2022-12-17T16:03:15.400Z,100927.53
2022-12-17T16:05:44.546Z,100930.13
2022-12-17T16:08:12.442Z,100936.28
2022-12-17T16:10:40.738Z,100942.47
2022-12-17T16:13:08.599Z,100953.81
2022-12-17T16:15:36.659Z,100943.31
2022-12-17T16:18:04.879Z,100946.78
2022-12-17T16:20:33.062Z,100948.53
2022-12-17T16:23:02.545Z,100950.28
2022-12-17T16:25:30.542Z,100957.31
2022-12-17T16:27:58.649Z,100972.25
2022-12-17T16:30:26.955Z,100967.81
2022-12-17T16:32:54.919Z,100982.69
2022-12-17T16:35:23.874Z,100971.31
2022-12-17T16:37:51.786Z,100977.41
2022-12-17T16:40:21.568Z,100978.31
2022-12-17T16:42:49.477Z,100987.03
2022-12-17T16:45:17.470Z,100990.47
2022-12-17T16:47:45.312Z,100990.59
2022-12-17T16:50:13.263Z,100992.28
2022-12-17T16:52:57.627Z,100994.84
2022-12-17T16:55:28.422Z,100999.25
2022-12-17T16:57:59.740Z,100994.94
2022-12-17T17:00:35.417Z,100994.94
2022-12-17T17:03:04.260Z,100997.56
2022-12-17T17:05:41.014Z,100993.25
2022-12-17T17:08:11.710Z,100995.00
2022-12-17T17:10:49.168Z,101001.94
2022-12-17T17:13:18.027Z,100997.59
2022-12-17T17:15:52.774Z,100998.50
2022-12-17T17:18:25.026Z,101004.59
2022-12-17T17:20:56.396Z,101003.69
2022-12-17T17:23:27.416Z,101004.59
2022-12-17T17:26:05.669Z,100997.59
2022-12-17T17:28:34.181Z,101006.31
2022-12-17T17:31:06.804Z,101015.09
2022-12-17T17:33:37.746Z,101024.66
2022-12-17T17:36:11.022Z,101029.06
2022-12-17T17:38:41.559Z,101041.31
2022-12-17T17:41:13.455Z,101040.41
2022-12-17T17:43:41.382Z,101036.13
2022-12-17T17:46:11.297Z,101038.63
2022-12-17T17:48:39.986Z,101034.25
2022-12-17T17:51:12.814Z,101029.91
2022-12-17T17:53:43.710Z,101027.31
2022-12-17T17:56:16.039Z,101027.28
2022-12-17T17:58:45.055Z,101031.63
2022-12-17T18:01:15.425Z,101035.06
2022-12-17T18:03:43.797Z,101034.16
2022-12-17T18:06:14.146Z,101041.09
2022-12-17T18:08:43.014Z,101037.69
2022-12-17T18:11:22.925Z,101037.72
2022-12-17T18:13:56.736Z,101032.47
2022-12-17T18:16:27.167Z,101037.69
2022-12-17T18:18:56.992Z,101042.94
2022-12-17T18:21:27.386Z,101055.97
2022-12-17T18:23:56.643Z,101055.13
2022-12-17T18:26:26.041Z,101061.25
2022-12-17T18:28:53.929Z,101046.38
2022-12-17T18:31:24.153Z,101045.44
2022-12-17T18:33:54.416Z,101060.34
2022-12-17T18:36:25.483Z,101060.28
2022-12-17T18:38:56.955Z,101062.94
2022-12-17T18:41:43.841Z,101058.47
2022-12-17T18:44:13.647Z,101059.41
2022-12-17T18:46:41.708Z,101068.09
2022-12-17T18:49:11.476Z,101062.81
2022-12-17T18:51:41.568Z,101065.50
2022-12-17T18:54:13.391Z,101055.91
2022-12-17T18:59:31.658Z,101075.03
2022-12-17T19:02:00.402Z,101067.25
2022-12-17T19:04:28.539Z,101079.41
2022-12-17T19:06:56.355Z,101079.50
2022-12-17T19:09:25.554Z,101097.75
2022-12-17T19:11:55.459Z,101099.44
2022-12-17T19:14:25.098Z,101096.13
2022-12-17T19:16:58.082Z,101111.75
2022-12-17T19:19:28.331Z,101114.31
2022-12-17T19:21:56.897Z,101111.53
2022-12-17T19:24:25.278Z,101120.34
2022-12-17T19:26:54.750Z,101129.97
2022-12-17T19:29:25.187Z,101117.72
2022-12-17T19:31:53.317Z,101119.69
2022-12-17T19:34:22.029Z,101114.41
2022-12-17T19:36:53.225Z,101126.56
2022-12-17T19:39:21.521Z,101116.88
2022-12-17T19:42:00.871Z,101119.59
2022-12-17T19:44:30.654Z,101125.66
2022-12-17T19:47:01.293Z,101130.03
2022-12-17T19:49:29.344Z,101131.81
2022-12-17T19:51:57.494Z,101126.81
2022-12-17T19:54:25.897Z,101134.59
2022-12-17T19:56:56.032Z,101127.66
2022-12-17T19:59:26.299Z,101132.91
2022-12-17T20:01:57.769Z,101147.53
2022-12-17T20:04:29.043Z,101142.34
2022-12-17T20:06:57.403Z,101145.25
2022-12-17T20:09:25.774Z,101160.94
2022-12-17T20:11:53.921Z,101168.78
2022-12-17T20:14:29.483Z,101166.09
2022-12-17T20:17:01.172Z,101167.69
2022-12-17T20:19:32.649Z,101176.31
2022-12-17T20:22:04.419Z,101169.41
2022-12-17T20:24:34.262Z,101174.59
2022-12-17T20:27:05.819Z,101169.34
2022-12-17T20:29:34.015Z,101177.09
2022-12-17T20:32:03.853Z,101178.06
2022-12-17T20:34:32.460Z,101173.81
2022-12-17T20:37:03.184Z,101176.53
2022-12-17T20:39:33.361Z,101175.44
2022-12-17T20:42:25.764Z,101171.22
2022-12-17T20:44:58.928Z,101171.28
2022-12-17T20:47:32.140Z,101178.97
2022-12-17T20:50:06.333Z,101178.13
2022-12-17T20:52:40.888Z,101175.56
2022-12-17T20:55:09.651Z,101178.22
2022-12-17T20:57:39.257Z,101186.09
2022-12-17T21:00:13.227Z,101176.59
2022-12-17T21:02:43.273Z,101174.94
2022-12-17T21:05:18.003Z,101178.34
2022-12-17T21:07:46.924Z,101207.88
2022-12-17T21:10:18.977Z,101210.44
2022-12-17T21:13:06.046Z,101220.56
2022-12-17T21:15:37.746Z,101218.91
2022-12-17T21:18:13.724Z,101206.75
2022-12-17T21:20:48.964Z,101207.66
2022-12-17T21:23:24.398Z,101205.91
2022-12-17T21:26:00.421Z,101211.09
2022-12-17T21:28:29.326Z,101201.72
2022-12-17T21:31:54.006Z,101201.81
2022-12-17T21:33:59.413Z,101170.56
2022-12-17T21:36:30.757Z,101171.34
2022-12-17T21:39:08.673Z,101159.34
2022-12-17T21:41:42.567Z,101149.66
2022-12-17T21:44:21.111Z,101153.19
2022-12-17T21:46:50.300Z,101148.84
2022-12-17T21:49:20.237Z,101144.41
2022-12-17T21:51:48.396Z,101142.78
2022-12-17T21:54:19.735Z,101135.94
2022-12-17T21:56:48.548Z,101129.03
2022-12-17T21:59:16.696Z,101142.06
2022-12-17T22:01:44.763Z,101136.91
2022-12-17T22:04:13.029Z,101133.31
2022-12-17T22:06:55.943Z,101136.03
2022-12-17T22:09:40.153Z,101130.00
2022-12-17T22:12:32.506Z,101124.72
2022-12-17T22:15:00.359Z,101134.41
2022-12-17T22:17:28.707Z,101141.38
2022-12-17T22:19:56.724Z,101130.94
2022-12-17T22:22:26.063Z,101141.31
2022-12-17T22:24:56.209Z,101142.22
2022-12-17T22:27:26.171Z,101144.06
2022-12-17T22:30:11.360Z,101151.91
2022-12-17T22:32:56.675Z,101151.03
2022-12-17T22:37:23.288Z,101156.22
2022-12-17T22:42:34.954Z,101165.00
2022-12-17T22:44:49.039Z,101167.53
2022-12-17T22:44:49.041Z,101163.06
2022-12-17T22:46:41.681Z,101155.28
2022-12-17T22:49:09.883Z,101165.84
2022-12-17T22:51:43.041Z,101172.84
2022-12-17T22:54:14.380Z,101172.88
2022-12-17T22:57:22.148Z,101179.91
2022-12-17T22:59:32.157Z,101179.81
2022-12-17T23:02:00.398Z,101185.78
2022-12-17T23:04:28.499Z,101184.13
2022-12-17T23:06:56.504Z,101191.09
2022-12-17T23:09:25.870Z,101190.28
2022-12-17T23:11:53.901Z,101177.16
2022-12-17T23:14:21.981Z,101181.59
2022-12-17T23:16:49.835Z,101159.75
2022-12-17T23:19:18.268Z,101167.59
2022-12-17T23:21:46.196Z,101179.69
2022-12-17T23:24:14.264Z,101183.16
2022-12-17T23:26:43.511Z,101182.16
2022-12-17T23:29:19.345Z,101191.72
2022-12-17T23:31:48.143Z,101196.13
2022-12-17T23:34:16.754Z,101181.94
2022-12-17T23:36:44.614Z,101187.25
2022-12-17T23:39:12.508Z,101180.22
2022-12-17T23:41:40.412Z,101186.44
2022-12-17T23:44:09.630Z,101174.25
2022-12-17T23:46:37.569Z,101174.25
2022-12-17T23:49:06.456Z,101176.81
2022-12-17T23:51:34.572Z,101191.44
2022-12-17T23:54:02.465Z,101183.63
2022-12-17T23:56:30.282Z,101193.16
2022-12-17T23:59:00.324Z,101196.41
